CMA CGM Kingfish — A8YW9 — position and weather

sailwx.info

Track history (hours):
 
Tides and Currents Weather Stations Pressure Air Temp Water Temp Dewpoint Dewpoint Depression Visibility Wind Speed Wind Dir Waves Ship Positions

CMA CGM Kingfish

Last reported at 2016-Apr-17 15:31 UTC. Time now 2016-Apr-30 01:22 UTC.
Position N 29°48' E 122°37'.
Warning: this ship's position is 12 days out of date.

Length 294 m; draft 10.7 m.

Type: Ship (hazmat cat A). MMSI: 636015147.

Date/timePositionNaut miles runAvg speedWind from/ knotsBaromVisibWave heightAir tempDewpointWater temp
2016-Apr-17 15:31N 29°48' E 122°37'1717.2
2016-Apr-17 14:33N 29°46' E 122°17'9 8.9
2016-Apr-17 13:33N 29°49' E 122°08'7 0.7
2016-Apr-17 03:08N 29°46' E 122°00'2 3.5
2016-Apr-17 02:31N 29°47' E 122°03'1110.9
2016-Apr-17 01:33N 29°48' E 122°15'9 7.5
2016-Apr-17 00:25N 29°44' E 122°23'4 4.1
2016-Apr-16 23:25N 29°43' E 122°28'8 6.9
2016-Apr-16 22:14N 29°42' E 122°37'7 1.2
2016-Apr-16 16:07N 29°47' E 122°43'4 4.3
2016-Apr-16 15:10N 29°49' E 122°47'3 3.5
2016-Apr-16 14:15N 29°51' E 122°50'2 1.7
2016-Apr-16 13:18N 29°52' E 122°48'34 4.3
2016-Apr-16 05:22N 30°26' E 122°49'19 6.3
2016-Apr-16 02:20N 30°32' E 122°28'1111.7
2016-Apr-16 01:24N 30°33' E 122°15'1010.3
2016-Apr-16 00:24N 30°37' E 122°04'0 0.0
2016-Apr-15 22:20N 30°37' E 122°04'0 0.0
2016-Apr-15 21:32N 30°37' E 122°04'0 0.0
2016-Apr-15 20:32N 30°37' E 122°04'0 0.0
2016-Apr-15 19:32N 30°37' E 122°04'0 0.0
2016-Apr-15 18:32N 30°37' E 122°04'0 0.0
2016-Apr-15 17:32N 30°37' E 122°04'0 0.0
2016-Apr-15 16:17N 30°37' E 122°04'0 0.0
2016-Apr-15 15:29N 30°37' E 122°04'0 0.0
2016-Apr-15 14:32N 30°37' E 122°04'2 2.1
2016-Apr-15 13:33N 30°36' E 122°06'1111.3
2016-Apr-15 12:34N 30°33' E 122°19'7 6.4
2016-Apr-15 11:28N 30°32' E 122°27'1111.9
2016-Apr-15 10:33N 30°30' E 122°39'1714.2
2016-Apr-15 09:21N 30°21' E 122°57'1114.5
2016-Apr-15 08:33N 30°12' E 123°05'1615.6
2016-Apr-15 07:33N 29°57' E 123°04'1716.5
2016-Apr-15 06:31N 29°40' E 122°57'1717.9
2016-Apr-15 05:33N 29°24' E 122°51'4217.9
2016-Apr-15 03:12N 28°44' E 122°35'1217.8
2016-Apr-15 02:32N 28°33' E 122°31'3817.7
2016-Apr-15 00:22N 27°59' E 122°11'22917.7
2016-Apr-14 11:25N 24°50' E 119°46'5618.9
2016-Apr-14 08:27N 24°16' E 118°57'3918.0
2016-Apr-14 06:16N 23°52' E 118°23'25514.4
2016-Apr-13 12:33N 22°19' E 114°05'2 0.1
2016-Apr-12 18:27N 22°20' E 114°05'4 0.9
2016-Apr-12 14:07N 22°17' E 114°06'3 5.8
2016-Apr-12 13:33N 22°20' E 114°08'0 0.4
2016-Apr-12 12:30N 22°20' E 114°08'0 0.0
2016-Apr-12 11:24N 22°20' E 114°08'0 0.0
2016-Apr-12 10:33N 22°20' E 114°08'0 0.0
2016-Apr-12 09:30N 22°20' E 114°08'0 0.0
2016-Apr-12 08:33N 22°20' E 114°08'0 0.0
2016-Apr-12 07:33N 22°20' E 114°08'0 0.0
2016-Apr-12 06:30N 22°20' E 114°08'0 0.0
2016-Apr-12 05:33N 22°20' E 114°08'0 0.0
2016-Apr-12 04:30N 22°20' E 114°08'0 0.0
2016-Apr-12 03:30N 22°20' E 114°08'0 0.0
2016-Apr-12 02:33N 22°20' E 114°08'0 0.0
2016-Apr-12 01:30N 22°20' E 114°08'0 0.0
2016-Apr-12 00:33N 22°20' E 114°08'2 2.2
2016-Apr-11 23:33N 22°19' E 114°06'1210.5
2016-Apr-11 22:27N 22°09' E 114°13'25112.0
2016-Apr-11 01:31N 23°51' E 118°23'3514.7
2016-Apr-10 23:08N 24°13' E 118°53'1213.4
2016-Apr-10 22:14N 24°20' E 119°04'913.7
2016-Apr-10 21:33N 24°26' E 119°12'35513.1
2016-Apr-09 18:28N 29°14' E 123°05'9411.9
2016-Apr-09 10:32N 30°40' E 123°49'1312.9
2016-Apr-09 09:34N 30°52' E 123°55'1413.9
2016-Apr-09 08:33N 31°05' E 123°60'  
Track history (hours):
 
Tides and Currents Weather Stations Pressure Air Temp Water Temp Dewpoint Dewpoint Depression Visibility Wind Speed Wind Dir Waves Ship Positions

CMA CGM Kingfish

Last reported at 2016-Apr-17 15:31 UTC. Time now 2016-Apr-30 01:22 UTC.
Position N 29°48' E 122°37'.
Warning: this ship's position is 12 days out of date.

Length 294 m; draft 10.7 m.

Type: Ship (hazmat cat A). MMSI: 636015147.

Date/timePositionNaut miles runAvg speedWind from/ knotsBaromVisibWave heightAir tempDewpointWater temp
2016-Apr-17 15:31N 29°48' E 122°37'1717.2
2016-Apr-17 14:33N 29°46' E 122°17'9 8.9
2016-Apr-17 13:33N 29°49' E 122°08'7 0.7
2016-Apr-17 03:08N 29°46' E 122°00'2 3.5
2016-Apr-17 02:31N 29°47' E 122°03'1110.9
2016-Apr-17 01:33N 29°48' E 122°15'9 7.5
2016-Apr-17 00:25N 29°44' E 122°23'4 4.1
2016-Apr-16 23:25N 29°43' E 122°28'8 6.9
2016-Apr-16 22:14N 29°42' E 122°37'7 1.2
2016-Apr-16 16:07N 29°47' E 122°43'4 4.3
2016-Apr-16 15:10N 29°49' E 122°47'3 3.5
2016-Apr-16 14:15N 29°51' E 122°50'2 1.7
2016-Apr-16 13:18N 29°52' E 122°48'34 4.3
2016-Apr-16 05:22N 30°26' E 122°49'19 6.3
2016-Apr-16 02:20N 30°32' E 122°28'1111.7
2016-Apr-16 01:24N 30°33' E 122°15'1010.3
2016-Apr-16 00:24N 30°37' E 122°04'0 0.0
2016-Apr-15 22:20N 30°37' E 122°04'0 0.0
2016-Apr-15 21:32N 30°37' E 122°04'0 0.0
2016-Apr-15 20:32N 30°37' E 122°04'0 0.0
2016-Apr-15 19:32N 30°37' E 122°04'0 0.0
2016-Apr-15 18:32N 30°37' E 122°04'0 0.0
2016-Apr-15 17:32N 30°37' E 122°04'0 0.0
2016-Apr-15 16:17N 30°37' E 122°04'0 0.0
2016-Apr-15 15:29N 30°37' E 122°04'0 0.0
2016-Apr-15 14:32N 30°37' E 122°04'2 2.1
2016-Apr-15 13:33N 30°36' E 122°06'1111.3
2016-Apr-15 12:34N 30°33' E 122°19'7 6.4
2016-Apr-15 11:28N 30°32' E 122°27'1111.9
2016-Apr-15 10:33N 30°30' E 122°39'1714.2
2016-Apr-15 09:21N 30°21' E 122°57'1114.5
2016-Apr-15 08:33N 30°12' E 123°05'1615.6
2016-Apr-15 07:33N 29°57' E 123°04'1716.5
2016-Apr-15 06:31N 29°40' E 122°57'1717.9
2016-Apr-15 05:33N 29°24' E 122°51'4217.9
2016-Apr-15 03:12N 28°44' E 122°35'1217.8
2016-Apr-15 02:32N 28°33' E 122°31'3817.7
2016-Apr-15 00:22N 27°59' E 122°11'22917.7
2016-Apr-14 11:25N 24°50' E 119°46'5618.9
2016-Apr-14 08:27N 24°16' E 118°57'3918.0
2016-Apr-14 06:16N 23°52' E 118°23'25514.4
2016-Apr-13 12:33N 22°19' E 114°05'2 0.1
2016-Apr-12 18:27N 22°20' E 114°05'4 0.9
2016-Apr-12 14:07N 22°17' E 114°06'3 5.8
2016-Apr-12 13:33N 22°20' E 114°08'0 0.4
2016-Apr-12 12:30N 22°20' E 114°08'0 0.0
2016-Apr-12 11:24N 22°20' E 114°08'0 0.0
2016-Apr-12 10:33N 22°20' E 114°08'0 0.0
2016-Apr-12 09:30N 22°20' E 114°08'0 0.0
2016-Apr-12 08:33N 22°20' E 114°08'0 0.0
2016-Apr-12 07:33N 22°20' E 114°08'0 0.0
2016-Apr-12 06:30N 22°20' E 114°08'0 0.0
2016-Apr-12 05:33N 22°20' E 114°08'0 0.0
2016-Apr-12 04:30N 22°20' E 114°08'0 0.0
2016-Apr-12 03:30N 22°20' E 114°08'0 0.0
2016-Apr-12 02:33N 22°20' E 114°08'0 0.0
2016-Apr-12 01:30N 22°20' E 114°08'0 0.0
2016-Apr-12 00:33N 22°20' E 114°08'2 2.2
2016-Apr-11 23:33N 22°19' E 114°06'1210.5
2016-Apr-11 22:27N 22°09' E 114°13'25112.0
2016-Apr-11 01:31N 23°51' E 118°23'3514.7
2016-Apr-10 23:08N 24°13' E 118°53'1213.4
2016-Apr-10 22:14N 24°20' E 119°04'913.7
2016-Apr-10 21:33N 24°26' E 119°12'35513.1
2016-Apr-09 18:28N 29°14' E 123°05'9411.9
2016-Apr-09 10:32N 30°40' E 123°49'1312.9
2016-Apr-09 09:34N 30°52' E 123°55'1413.9
2016-Apr-09 08:33N 31°05' E 123°60'  

Dump ship's entire track history